sensor_id;sensor_type;location;lat;lon;timestamp;temperature;humidity
82851;DHT22;72609;45.768;4.884;2023-09-19T00:01:33;21.50;81.70
82851;DHT22;72609;45.768;4.884;2023-09-19T00:03:59;21.40;81.90
82851;DHT22;72609;45.768;4.884;2023-09-19T00:06:28;21.30;82.00
82851;DHT22;72609;45.768;4.884;2023-09-19T00:08:57;21.20;82.80
82851;DHT22;72609;45.768;4.884;2023-09-19T00:11:24;21.20;83.00
82851;DHT22;72609;45.768;4.884;2023-09-19T00:13:52;21.10;82.60
82851;DHT22;72609;45.768;4.884;2023-09-19T00:16:17;21.10;82.90
82851;DHT22;72609;45.768;4.884;2023-09-19T00:18:44;21.10;82.90
82851;DHT22;72609;45.768;4.884;2023-09-19T00:21:10;21.10;83.00
82851;DHT22;72609;45.768;4.884;2023-09-19T00:23:36;21.10;82.80
82851;DHT22;72609;45.768;4.884;2023-09-19T00:26:02;21.10;83.00
82851;DHT22;72609;45.768;4.884;2023-09-19T00:28:29;21.20;82.50
82851;DHT22;72609;45.768;4.884;2023-09-19T00:30:55;21.30;82.50
82851;DHT22;72609;45.768;4.884;2023-09-19T00:33:21;21.30;82.10
82851;DHT22;72609;45.768;4.884;2023-09-19T00:35:52;21.30;82.10
82851;DHT22;72609;45.768;4.884;2023-09-19T00:38:18;21.30;82.20
82851;DHT22;72609;45.768;4.884;2023-09-19T00:40:47;21.40;82.00
82851;DHT22;72609;45.768;4.884;2023-09-19T00:43:13;21.50;81.80
82851;DHT22;72609;45.768;4.884;2023-09-19T00:45:39;21.60;81.60
82851;DHT22;72609;45.768;4.884;2023-09-19T00:48:08;21.60;81.60
82851;DHT22;72609;45.768;4.884;2023-09-19T00:50:35;21.70;81.50
82851;DHT22;72609;45.768;4.884;2023-09-19T00:53:02;21.80;81.50
82851;DHT22;72609;45.768;4.884;2023-09-19T00:55:34;21.80;80.90
82851;DHT22;72609;45.768;4.884;2023-09-19T00:58:00;21.80;80.90
82851;DHT22;72609;45.768;4.884;2023-09-19T01:00:26;21.80;81.10
82851;DHT22;72609;45.768;4.884;2023-09-19T01:02:51;21.70;80.80
82851;DHT22;72609;45.768;4.884;2023-09-19T01:05:17;21.70;81.10
82851;DHT22;72609;45.768;4.884;2023-09-19T01:07:44;21.60;81.80
82851;DHT22;72609;45.768;4.884;2023-09-19T01:10:14;21.60;81.20
82851;DHT22;72609;45.768;4.884;2023-09-19T01:13:01;21.60;81.10
82851;DHT22;72609;45.768;4.884;2023-09-19T01:21:07;21.60;81.20
82851;DHT22;72609;45.768;4.884;2023-09-19T01:29:39;21.70;80.60
82851;DHT22;72609;45.768;4.884;2023-09-19T01:32:06;21.70;81.10
82851;DHT22;72609;45.768;4.884;2023-09-19T01:34:47;21.70;79.80
82851;DHT22;72609;45.768;4.884;2023-09-19T01:37:15;21.70;80.00
82851;DHT22;72609;45.768;4.884;2023-09-19T01:39:48;21.70;79.80
82851;DHT22;72609;45.768;4.884;2023-09-19T01:42:31;21.70;79.20
82851;DHT22;72609;45.768;4.884;2023-09-19T01:45:15;21.70;79.30
82851;DHT22;72609;45.768;4.884;2023-09-19T01:47:50;21.60;78.90
82851;DHT22;72609;45.768;4.884;2023-09-19T01:53:27;21.40;79.20
82851;DHT22;72609;45.768;4.884;2023-09-19T01:55:59;21.30;79.70
82851;DHT22;72609;45.768;4.884;2023-09-19T01:58:37;21.20;80.00
82851;DHT22;72609;45.768;4.884;2023-09-19T02:01:04;21.10;80.20
82851;DHT22;72609;45.768;4.884;2023-09-19T02:03:32;21.10;80.20
82851;DHT22;72609;45.768;4.884;2023-09-19T02:05:59;21.00;80.20
82851;DHT22;72609;45.768;4.884;2023-09-19T02:08:24;21.00;80.50
82851;DHT22;72609;45.768;4.884;2023-09-19T02:10:51;20.90;80.80
82851;DHT22;72609;45.768;4.884;2023-09-19T02:13:19;20.90;81.30
82851;DHT22;72609;45.768;4.884;2023-09-19T02:15:46;20.90;80.60
82851;DHT22;72609;45.768;4.884;2023-09-19T02:18:14;20.90;80.30
82851;DHT22;72609;45.768;4.884;2023-09-19T02:20:40;20.90;79.70
82851;DHT22;72609;45.768;4.884;2023-09-19T02:23:06;20.90;79.30
82851;DHT22;72609;45.768;4.884;2023-09-19T02:25:33;21.00;79.10
82851;DHT22;72609;45.768;4.884;2023-09-19T02:28:00;20.90;78.80
82851;DHT22;72609;45.768;4.884;2023-09-19T02:30:28;20.90;78.60
82851;DHT22;72609;45.768;4.884;2023-09-19T02:32:54;20.90;78.50
82851;DHT22;72609;45.768;4.884;2023-09-19T02:35:19;20.90;78.40
82851;DHT22;72609;45.768;4.884;2023-09-19T02:37:46;20.90;78.50
82851;DHT22;72609;45.768;4.884;2023-09-19T02:40:12;20.80;78.60
82851;DHT22;72609;45.768;4.884;2023-09-19T02:42:54;20.90;78.10
82851;DHT22;72609;45.768;4.884;2023-09-19T02:45:20;20.80;78.10
82851;DHT22;72609;45.768;4.884;2023-09-19T02:47:46;20.80;78.40
82851;DHT22;72609;45.768;4.884;2023-09-19T02:50:13;20.80;78.10
82851;DHT22;72609;45.768;4.884;2023-09-19T02:52:48;20.80;78.40
82851;DHT22;72609;45.768;4.884;2023-09-19T02:55:15;20.80;78.10
82851;DHT22;72609;45.768;4.884;2023-09-19T02:57:49;20.80;78.20
82851;DHT22;72609;45.768;4.884;2023-09-19T03:00:16;20.70;78.00
82851;DHT22;72609;45.768;4.884;2023-09-19T03:02:48;20.70;78.00
82851;DHT22;72609;45.768;4.884;2023-09-19T03:05:14;20.70;78.00
82851;DHT22;72609;45.768;4.884;2023-09-19T03:07:40;20.70;78.40
82851;DHT22;72609;45.768;4.884;2023-09-19T03:10:09;20.70;78.30
82851;DHT22;72609;45.768;4.884;2023-09-19T03:12:34;20.70;78.40
82851;DHT22;72609;45.768;4.884;2023-09-19T03:15:00;20.70;78.20
82851;DHT22;72609;45.768;4.884;2023-09-19T03:17:26;20.70;78.10
82851;DHT22;72609;45.768;4.884;2023-09-19T03:19:52;20.70;77.90
82851;DHT22;72609;45.768;4.884;2023-09-19T03:22:19;20.80;78.00
82851;DHT22;72609;45.768;4.884;2023-09-19T03:24:45;20.70;77.70
82851;DHT22;72609;45.768;4.884;2023-09-19T03:27:12;20.80;78.00
82851;DHT22;72609;45.768;4.884;2023-09-19T03:29:39;20.80;77.70
82851;DHT22;72609;45.768;4.884;2023-09-19T03:32:05;20.90;77.80
82851;DHT22;72609;45.768;4.884;2023-09-19T03:34:31;20.90;78.20
82851;DHT22;72609;45.768;4.884;2023-09-19T03:36:57;20.90;78.00
82851;DHT22;72609;45.768;4.884;2023-09-19T03:39:22;21.00;77.70
82851;DHT22;72609;45.768;4.884;2023-09-19T03:41:48;20.90;77.80
82851;DHT22;72609;45.768;4.884;2023-09-19T03:44:15;20.90;78.00
82851;DHT22;72609;45.768;4.884;2023-09-19T03:46:40;20.90;78.00
82851;DHT22;72609;45.768;4.884;2023-09-19T03:49:06;20.90;77.80
82851;DHT22;72609;45.768;4.884;2023-09-19T03:51:32;20.90;77.90
82851;DHT22;72609;45.768;4.884;2023-09-19T03:53:59;20.90;77.70
82851;DHT22;72609;45.768;4.884;2023-09-19T03:56:25;20.90;78.00
82851;DHT22;72609;45.768;4.884;2023-09-19T03:58:51;21.00;77.50
82851;DHT22;72609;45.768;4.884;2023-09-19T04:01:16;20.90;77.00
82851;DHT22;72609;45.768;4.884;2023-09-19T04:03:44;21.00;77.00
82851;DHT22;72609;45.768;4.884;2023-09-19T04:06:14;21.00;76.90
82851;DHT22;72609;45.768;4.884;2023-09-19T04:08:40;21.00;76.70
82851;DHT22;72609;45.768;4.884;2023-09-19T04:11:05;21.00;76.60
82851;DHT22;72609;45.768;4.884;2023-09-19T04:13:31;21.00;76.50
82851;DHT22;72609;45.768;4.884;2023-09-19T04:15:57;21.00;76.70
82851;DHT22;72609;45.768;4.884;2023-09-19T04:18:23;21.00;76.30
82851;DHT22;72609;45.768;4.884;2023-09-19T04:20:51;20.90;76.00
82851;DHT22;72609;45.768;4.884;2023-09-19T04:23:17;20.90;76.40
82851;DHT22;72609;45.768;4.884;2023-09-19T04:25:45;20.90;76.20
82851;DHT22;72609;45.768;4.884;2023-09-19T04:28:11;20.90;76.30
82851;DHT22;72609;45.768;4.884;2023-09-19T04:30:37;20.80;76.30
82851;DHT22;72609;45.768;4.884;2023-09-19T04:33:03;20.80;76.20
82851;DHT22;72609;45.768;4.884;2023-09-19T04:35:29;20.80;76.50
82851;DHT22;72609;45.768;4.884;2023-09-19T04:37:57;20.80;76.40
82851;DHT22;72609;45.768;4.884;2023-09-19T04:40:23;20.80;75.90
82851;DHT22;72609;45.768;4.884;2023-09-19T04:42:55;20.90;76.00
82851;DHT22;72609;45.768;4.884;2023-09-19T04:45:26;20.90;75.90
82851;DHT22;72609;45.768;4.884;2023-09-19T04:47:52;20.90;76.10
82851;DHT22;72609;45.768;4.884;2023-09-19T04:50:19;20.90;75.50
82851;DHT22;72609;45.768;4.884;2023-09-19T04:52:45;20.90;75.30
82851;DHT22;72609;45.768;4.884;2023-09-19T04:55:14;20.90;75.60
82851;DHT22;72609;45.768;4.884;2023-09-19T04:57:46;20.90;75.50
82851;DHT22;72609;45.768;4.884;2023-09-19T05:00:18;20.90;76.20
82851;DHT22;72609;45.768;4.884;2023-09-19T05:02:45;20.80;76.10
82851;DHT22;72609;45.768;4.884;2023-09-19T05:05:11;20.80;76.70
82851;DHT22;72609;45.768;4.884;2023-09-19T05:07:38;20.80;76.80
82851;DHT22;72609;45.768;4.884;2023-09-19T05:10:05;20.80;77.00
82851;DHT22;72609;45.768;4.884;2023-09-19T05:12:34;20.80;76.70
82851;DHT22;72609;45.768;4.884;2023-09-19T05:15:04;20.80;76.40
82851;DHT22;72609;45.768;4.884;2023-09-19T05:17:30;20.80;76.20
82851;DHT22;72609;45.768;4.884;2023-09-19T05:19:56;20.80;76.20
82851;DHT22;72609;45.768;4.884;2023-09-19T05:22:23;20.80;75.40
82851;DHT22;72609;45.768;4.884;2023-09-19T05:24:50;20.80;76.00
82851;DHT22;72609;45.768;4.884;2023-09-19T05:27:16;20.80;76.10
82851;DHT22;72609;45.768;4.884;2023-09-19T05:29:43;20.80;75.60
82851;DHT22;72609;45.768;4.884;2023-09-19T05:32:10;20.80;76.10
82851;DHT22;72609;45.768;4.884;2023-09-19T05:34:36;20.80;75.80
82851;DHT22;72609;45.768;4.884;2023-09-19T05:37:02;20.90;75.70
82851;DHT22;72609;45.768;4.884;2023-09-19T05:39:27;20.80;75.70
82851;DHT22;72609;45.768;4.884;2023-09-19T05:41:53;20.80;75.70
82851;DHT22;72609;45.768;4.884;2023-09-19T05:44:19;20.90;75.80
82851;DHT22;72609;45.768;4.884;2023-09-19T05:46:44;20.90;75.60
82851;DHT22;72609;45.768;4.884;2023-09-19T05:49:11;20.90;75.90
82851;DHT22;72609;45.768;4.884;2023-09-19T05:51:37;20.90;75.80
82851;DHT22;72609;45.768;4.884;2023-09-19T05:54:02;20.90;75.40
82851;DHT22;72609;45.768;4.884;2023-09-19T05:56:30;21.00;75.30
82851;DHT22;72609;45.768;4.884;2023-09-19T05:58:56;21.00;75.00
82851;DHT22;72609;45.768;4.884;2023-09-19T06:01:22;21.00;74.80
82851;DHT22;72609;45.768;4.884;2023-09-19T06:03:48;20.90;74.60
82851;DHT22;72609;45.768;4.884;2023-09-19T06:06:14;20.90;74.70
82851;DHT22;72609;45.768;4.884;2023-09-19T06:08:39;20.90;74.70
82851;DHT22;72609;45.768;4.884;2023-09-19T06:11:05;20.90;74.60
82851;DHT22;72609;45.768;4.884;2023-09-19T06:13:34;21.00;74.80
82851;DHT22;72609;45.768;4.884;2023-09-19T06:16:00;21.00;74.70
82851;DHT22;72609;45.768;4.884;2023-09-19T06:18:33;21.00;74.40
82851;DHT22;72609;45.768;4.884;2023-09-19T06:21:01;21.00;73.80
82851;DHT22;72609;45.768;4.884;2023-09-19T06:23:33;21.00;73.70
82851;DHT22;72609;45.768;4.884;2023-09-19T06:25:59;21.00;73.50
82851;DHT22;72609;45.768;4.884;2023-09-19T06:28:25;21.10;73.50
82851;DHT22;72609;45.768;4.884;2023-09-19T06:30:53;21.10;73.50
82851;DHT22;72609;45.768;4.884;2023-09-19T06:33:19;21.10;74.20
82851;DHT22;72609;45.768;4.884;2023-09-19T06:35:47;21.10;74.70
82851;DHT22;72609;45.768;4.884;2023-09-19T06:38:13;21.10;75.20
82851;DHT22;72609;45.768;4.884;2023-09-19T06:40:41;21.10;75.30
82851;DHT22;72609;45.768;4.884;2023-09-19T06:43:10;21.20;75.50
82851;DHT22;72609;45.768;4.884;2023-09-19T06:45:36;21.30;75.30
82851;DHT22;72609;45.768;4.884;2023-09-19T06:48:02;21.30;74.70
82851;DHT22;72609;45.768;4.884;2023-09-19T06:50:29;21.50;72.90
82851;DHT22;72609;45.768;4.884;2023-09-19T06:52:57;21.50;72.50
82851;DHT22;72609;45.768;4.884;2023-09-19T06:55:25;21.60;71.30
82851;DHT22;72609;45.768;4.884;2023-09-19T06:57:53;21.70;70.20
82851;DHT22;72609;45.768;4.884;2023-09-19T07:00:22;21.80;69.30
82851;DHT22;72609;45.768;4.884;2023-09-19T07:02:58;21.80;68.70
82851;DHT22;72609;45.768;4.884;2023-09-19T07:05:26;21.90;68.90
82851;DHT22;72609;45.768;4.884;2023-09-19T07:07:53;22.00;69.10
82851;DHT22;72609;45.768;4.884;2023-09-19T07:10:20;22.10;69.20
82851;DHT22;72609;45.768;4.884;2023-09-19T07:13:03;22.30;69.30
82851;DHT22;72609;45.768;4.884;2023-09-19T07:15:32;22.40;69.40
82851;DHT22;72609;45.768;4.884;2023-09-19T07:18:01;22.50;68.70
82851;DHT22;72609;45.768;4.884;2023-09-19T07:20:26;22.70;68.30
82851;DHT22;72609;45.768;4.884;2023-09-19T07:22:54;22.80;68.00
82851;DHT22;72609;45.768;4.884;2023-09-19T07:25:20;23.00;67.30
82851;DHT22;72609;45.768;4.884;2023-09-19T07:27:46;23.30;66.60
82851;DHT22;72609;45.768;4.884;2023-09-19T07:30:12;23.50;63.80
82851;DHT22;72609;45.768;4.884;2023-09-19T07:32:38;23.80;64.80
82851;DHT22;72609;45.768;4.884;2023-09-19T07:35:05;24.10;63.30
82851;DHT22;72609;45.768;4.884;2023-09-19T07:37:34;24.50;61.80
82851;DHT22;72609;45.768;4.884;2023-09-19T07:40:00;24.80;61.60
82851;DHT22;72609;45.768;4.884;2023-09-19T07:42:26;25.60;60.40
82851;DHT22;72609;45.768;4.884;2023-09-19T07:44:52;27.30;58.00
82851;DHT22;72609;45.768;4.884;2023-09-19T07:47:20;29.10;54.20
82851;DHT22;72609;45.768;4.884;2023-09-19T07:49:47;30.70;51.00
82851;DHT22;72609;45.768;4.884;2023-09-19T07:52:13;32.20;47.20
82851;DHT22;72609;45.768;4.884;2023-09-19T07:54:39;33.20;44.90
82851;DHT22;72609;45.768;4.884;2023-09-19T07:57:09;34.00;44.00
82851;DHT22;72609;45.768;4.884;2023-09-19T07:59:35;34.60;42.70
82851;DHT22;72609;45.768;4.884;2023-09-19T08:02:01;35.30;41.00
82851;DHT22;72609;45.768;4.884;2023-09-19T08:04:30;36.00;41.70
82851;DHT22;72609;45.768;4.884;2023-09-19T08:06:59;36.90;40.00
82851;DHT22;72609;45.768;4.884;2023-09-19T08:09:26;37.60;38.60
82851;DHT22;72609;45.768;4.884;2023-09-19T08:11:51;37.90;37.40
82851;DHT22;72609;45.768;4.884;2023-09-19T08:14:17;38.30;37.60
82851;DHT22;72609;45.768;4.884;2023-09-19T08:16:43;38.20;36.60
82851;DHT22;72609;45.768;4.884;2023-09-19T08:19:10;36.70;36.10
82851;DHT22;72609;45.768;4.884;2023-09-19T08:21:36;36.00;37.20
82851;DHT22;72609;45.768;4.884;2023-09-19T08:24:01;36.10;37.90
82851;DHT22;72609;45.768;4.884;2023-09-19T08:26:29;36.00;37.20
82851;DHT22;72609;45.768;4.884;2023-09-19T08:28:56;34.90;38.10
82851;DHT22;72609;45.768;4.884;2023-09-19T08:31:22;33.60;39.30
82851;DHT22;72609;45.768;4.884;2023-09-19T08:33:49;32.90;41.30
82851;DHT22;72609;45.768;4.884;2023-09-19T08:36:17;31.00;41.60
82851;DHT22;72609;45.768;4.884;2023-09-19T08:38:43;30.30;44.30
82851;DHT22;72609;45.768;4.884;2023-09-19T08:41:09;31.50;44.30
82851;DHT22;72609;45.768;4.884;2023-09-19T08:43:35;33.50;42.20
82851;DHT22;72609;45.768;4.884;2023-09-19T08:46:27;35.70;39.70
82851;DHT22;72609;45.768;4.884;2023-09-19T08:49:03;38.00;35.50
82851;DHT22;72609;45.768;4.884;2023-09-19T08:51:33;39.90;32.60
82851;DHT22;72609;45.768;4.884;2023-09-19T08:54:08;40.80;30.80
82851;DHT22;72609;45.768;4.884;2023-09-19T08:56:35;40.20;30.10
82851;DHT22;72609;45.768;4.884;2023-09-19T08:59:05;40.60;32.10
82851;DHT22;72609;45.768;4.884;2023-09-19T09:01:34;40.20;32.20
82851;DHT22;72609;45.768;4.884;2023-09-19T09:04:02;38.40;33.00
82851;DHT22;72609;45.768;4.884;2023-09-19T09:06:28;36.60;34.50
82851;DHT22;72609;45.768;4.884;2023-09-19T09:08:55;35.20;35.80
82851;DHT22;72609;45.768;4.884;2023-09-19T09:11:21;33.90;36.60
82851;DHT22;72609;45.768;4.884;2023-09-19T09:13:47;32.60;37.90
82851;DHT22;72609;45.768;4.884;2023-09-19T09:16:14;31.40;39.50
82851;DHT22;72609;45.768;4.884;2023-09-19T09:18:42;30.30;40.60
82851;DHT22;72609;45.768;4.884;2023-09-19T09:21:09;29.30;42.10
82851;DHT22;72609;45.768;4.884;2023-09-19T09:23:35;28.60;43.60
82851;DHT22;72609;45.768;4.884;2023-09-19T09:26:01;28.10;44.50
82851;DHT22;72609;45.768;4.884;2023-09-19T09:28:32;27.60;45.30
82851;DHT22;72609;45.768;4.884;2023-09-19T09:30:59;27.10;46.30
82851;DHT22;72609;45.768;4.884;2023-09-19T09:33:26;26.80;47.30
82851;DHT22;72609;45.768;4.884;2023-09-19T09:36:00;26.60;47.70
82851;DHT22;72609;45.768;4.884;2023-09-19T09:38:29;26.70;48.10
82851;DHT22;72609;45.768;4.884;2023-09-19T09:40:57;27.00;47.80
82851;DHT22;72609;45.768;4.884;2023-09-19T09:43:34;27.20;47.50
82851;DHT22;72609;45.768;4.884;2023-09-19T09:46:09;27.40;47.20
82851;DHT22;72609;45.768;4.884;2023-09-19T09:49:04;27.60;47.10
82851;DHT22;72609;45.768;4.884;2023-09-19T09:52:07;27.60;46.40
82851;DHT22;72609;45.768;4.884;2023-09-19T09:54:59;27.80;46.40
82851;DHT22;72609;45.768;4.884;2023-09-19T09:57:26;28.10;45.70
82851;DHT22;72609;45.768;4.884;2023-09-19T10:02:27;28.60;44.70
82851;DHT22;72609;45.768;4.884;2023-09-19T10:05:20;28.20;44.90
82851;DHT22;72609;45.768;4.884;2023-09-19T10:07:46;27.60;45.20
82851;DHT22;72609;45.768;4.884;2023-09-19T10:10:40;27.50;48.30
82851;DHT22;72609;45.768;4.884;2023-09-19T10:13:10;27.20;46.60
82851;DHT22;72609;45.768;4.884;2023-09-19T10:15:42;26.90;47.20
82851;DHT22;72609;45.768;4.884;2023-09-19T10:18:14;26.80;47.80
82851;DHT22;72609;45.768;4.884;2023-09-19T10:20:45;26.60;48.20
82851;DHT22;72609;45.768;4.884;2023-09-19T10:23:12;26.50;47.80
82851;DHT22;72609;45.768;4.884;2023-09-19T10:25:42;26.30;47.90
82851;DHT22;72609;45.768;4.884;2023-09-19T10:28:10;26.10;48.00
82851;DHT22;72609;45.768;4.884;2023-09-19T10:30:44;25.80;48.30
82851;DHT22;72609;45.768;4.884;2023-09-19T10:33:13;25.70;48.70
82851;DHT22;72609;45.768;4.884;2023-09-19T10:35:42;25.70;50.10
82851;DHT22;72609;45.768;4.884;2023-09-19T10:38:10;25.70;49.00
82851;DHT22;72609;45.768;4.884;2023-09-19T10:40:37;25.60;48.80
82851;DHT22;72609;45.768;4.884;2023-09-19T10:43:17;25.60;49.20
82851;DHT22;72609;45.768;4.884;2023-09-19T10:45:49;26.00;48.80
82851;DHT22;72609;45.768;4.884;2023-09-19T10:48:18;26.40;48.60
82851;DHT22;72609;45.768;4.884;2023-09-19T10:53:41;26.90;47.80
82851;DHT22;72609;45.768;4.884;2023-09-19T10:56:08;27.10;47.50
82851;DHT22;72609;45.768;4.884;2023-09-19T10:58:40;27.30;47.00
82851;DHT22;72609;45.768;4.884;2023-09-19T11:01:08;27.20;45.60
82851;DHT22;72609;45.768;4.884;2023-09-19T11:03:44;27.10;46.70
82851;DHT22;72609;45.768;4.884;2023-09-19T11:06:14;26.90;46.90
82851;DHT22;72609;45.768;4.884;2023-09-19T11:09:01;26.70;46.80
82851;DHT22;72609;45.768;4.884;2023-09-19T11:11:38;26.60;47.00
82851;DHT22;72609;45.768;4.884;2023-09-19T11:14:40;26.60;47.60
82851;DHT22;72609;45.768;4.884;2023-09-19T11:20:18;26.60;47.50
82851;DHT22;72609;45.768;4.884;2023-09-19T11:30:52;26.70;47.20
82851;DHT22;72609;45.768;4.884;2023-09-19T11:33:29;26.80;47.50
82851;DHT22;72609;45.768;4.884;2023-09-19T11:36:14;27.00;47.50
82851;DHT22;72609;45.768;4.884;2023-09-19T11:46:33;27.00;46.40
82851;DHT22;72609;45.768;4.884;2023-09-19T11:49:09;27.10;46.50
82851;DHT22;72609;45.768;4.884;2023-09-19T11:51:45;27.00;45.80
82851;DHT22;72609;45.768;4.884;2023-09-19T11:54:11;26.70;46.50
82851;DHT22;72609;45.768;4.884;2023-09-19T11:56:54;26.60;46.20
82851;DHT22;72609;45.768;4.884;2023-09-19T11:59:23;26.40;46.80
82851;DHT22;72609;45.768;4.884;2023-09-19T12:01:54;26.40;47.10
82851;DHT22;72609;45.768;4.884;2023-09-19T12:04:42;26.40;46.40
82851;DHT22;72609;45.768;4.884;2023-09-19T12:07:16;26.40;45.90
82851;DHT22;72609;45.768;4.884;2023-09-19T12:09:43;26.40;45.60
82851;DHT22;72609;45.768;4.884;2023-09-19T12:12:28;26.30;45.80
82851;DHT22;72609;45.768;4.884;2023-09-19T12:14:54;26.30;44.40
82851;DHT22;72609;45.768;4.884;2023-09-19T12:17:22;26.30;45.20
82851;DHT22;72609;45.768;4.884;2023-09-19T12:19:56;26.30;45.40
82851;DHT22;72609;45.768;4.884;2023-09-19T12:22:22;26.30;45.40
82851;DHT22;72609;45.768;4.884;2023-09-19T12:24:48;26.20;45.20
82851;DHT22;72609;45.768;4.884;2023-09-19T12:27:13;26.10;45.60
82851;DHT22;72609;45.768;4.884;2023-09-19T12:29:47;26.10;45.50
82851;DHT22;72609;45.768;4.884;2023-09-19T12:32:14;26.10;44.70
82851;DHT22;72609;45.768;4.884;2023-09-19T12:34:42;26.20;45.40
82851;DHT22;72609;45.768;4.884;2023-09-19T12:37:13;26.20;45.50
82851;DHT22;72609;45.768;4.884;2023-09-19T12:39:47;26.30;44.90
82851;DHT22;72609;45.768;4.884;2023-09-19T12:42:24;26.20;43.80
82851;DHT22;72609;45.768;4.884;2023-09-19T12:44:55;26.30;44.70
82851;DHT22;72609;45.768;4.884;2023-09-19T12:47:22;26.30;45.20
82851;DHT22;72609;45.768;4.884;2023-09-19T12:50:10;26.30;45.40
82851;DHT22;72609;45.768;4.884;2023-09-19T12:52:47;26.20;44.10
82851;DHT22;72609;45.768;4.884;2023-09-19T12:55:21;26.10;44.10
82851;DHT22;72609;45.768;4.884;2023-09-19T12:58:21;26.10;44.30
82851;DHT22;72609;45.768;4.884;2023-09-19T13:00:47;26.10;44.20
82851;DHT22;72609;45.768;4.884;2023-09-19T13:03:27;26.10;44.70
82851;DHT22;72609;45.768;4.884;2023-09-19T13:06:04;26.10;44.40
82851;DHT22;72609;45.768;4.884;2023-09-19T13:08:31;26.10;45.20
82851;DHT22;72609;45.768;4.884;2023-09-19T13:11:16;26.10;45.40
82851;DHT22;72609;45.768;4.884;2023-09-19T13:13:51;26.10;44.30
82851;DHT22;72609;45.768;4.884;2023-09-19T13:16:33;26.00;45.10
82851;DHT22;72609;45.768;4.884;2023-09-19T13:18:59;25.90;45.60
82851;DHT22;72609;45.768;4.884;2023-09-19T13:21:32;25.90;45.70
82851;DHT22;72609;45.768;4.884;2023-09-19T13:24:19;25.90;45.20
82851;DHT22;72609;45.768;4.884;2023-09-19T13:26:44;25.90;45.20
82851;DHT22;72609;45.768;4.884;2023-09-19T13:29:11;25.90;45.90
82851;DHT22;72609;45.768;4.884;2023-09-19T13:31:37;25.90;45.80
82851;DHT22;72609;45.768;4.884;2023-09-19T13:34:07;25.90;45.70
82851;DHT22;72609;45.768;4.884;2023-09-19T13:36:32;25.90;46.00
82851;DHT22;72609;45.768;4.884;2023-09-19T13:38:59;25.80;46.20
82851;DHT22;72609;45.768;4.884;2023-09-19T13:41:25;25.80;46.50
82851;DHT22;72609;45.768;4.884;2023-09-19T13:43:51;25.70;46.10
82851;DHT22;72609;45.768;4.884;2023-09-19T13:46:17;25.70;46.30
82851;DHT22;72609;45.768;4.884;2023-09-19T13:48:50;25.60;46.00
82851;DHT22;72609;45.768;4.884;2023-09-19T13:51:17;25.60;46.20
82851;DHT22;72609;45.768;4.884;2023-09-19T13:53:44;25.60;46.20
82851;DHT22;72609;45.768;4.884;2023-09-19T13:56:10;25.60;46.50
82851;DHT22;72609;45.768;4.884;2023-09-19T13:58:36;25.60;46.30
82851;DHT22;72609;45.768;4.884;2023-09-19T14:01:02;25.60;46.50
82851;DHT22;72609;45.768;4.884;2023-09-19T14:03:27;25.60;46.60
82851;DHT22;72609;45.768;4.884;2023-09-19T14:05:53;25.70;46.40
82851;DHT22;72609;45.768;4.884;2023-09-19T14:08:19;25.80;45.90
82851;DHT22;72609;45.768;4.884;2023-09-19T14:10:44;25.90;46.30
82851;DHT22;72609;45.768;4.884;2023-09-19T14:13:10;26.00;45.50
82851;DHT22;72609;45.768;4.884;2023-09-19T14:15:38;25.90;45.90
82851;DHT22;72609;45.768;4.884;2023-09-19T14:18:04;26.00;45.90
82851;DHT22;72609;45.768;4.884;2023-09-19T14:20:30;26.10;46.00
82851;DHT22;72609;45.768;4.884;2023-09-19T14:22:57;26.10;45.20
82851;DHT22;72609;45.768;4.884;2023-09-19T14:25:24;26.10;44.70
82851;DHT22;72609;45.768;4.884;2023-09-19T14:27:50;26.00;45.10
82851;DHT22;72609;45.768;4.884;2023-09-19T14:30:17;26.00;45.00
82851;DHT22;72609;45.768;4.884;2023-09-19T14:32:42;25.80;45.10
82851;DHT22;72609;45.768;4.884;2023-09-19T14:35:08;25.80;45.00
82851;DHT22;72609;45.768;4.884;2023-09-19T14:37:35;25.70;45.40
82851;DHT22;72609;45.768;4.884;2023-09-19T14:40:01;25.60;45.40
82851;DHT22;72609;45.768;4.884;2023-09-19T14:42:32;25.70;45.80
82851;DHT22;72609;45.768;4.884;2023-09-19T14:44:58;25.70;46.10
82851;DHT22;72609;45.768;4.884;2023-09-19T14:47:23;25.80;45.80
82851;DHT22;72609;45.768;4.884;2023-09-19T14:49:49;25.80;45.70
82851;DHT22;72609;45.768;4.884;2023-09-19T14:52:15;25.90;45.30
82851;DHT22;72609;45.768;4.884;2023-09-19T14:54:41;26.00;45.80
82851;DHT22;72609;45.768;4.884;2023-09-19T14:57:07;26.10;45.60
82851;DHT22;72609;45.768;4.884;2023-09-19T14:59:34;26.10;45.60
82851;DHT22;72609;45.768;4.884;2023-09-19T15:02:03;26.20;44.50
82851;DHT22;72609;45.768;4.884;2023-09-19T15:04:29;26.10;44.50
82851;DHT22;72609;45.768;4.884;2023-09-19T15:06:55;26.10;44.50
82851;DHT22;72609;45.768;4.884;2023-09-19T15:09:24;26.20;44.00
82851;DHT22;72609;45.768;4.884;2023-09-19T15:11:55;26.30;43.60
82851;DHT22;72609;45.768;4.884;2023-09-19T15:14:24;26.40;43.80
82851;DHT22;72609;45.768;4.884;2023-09-19T15:16:50;26.20;43.80
82851;DHT22;72609;45.768;4.884;2023-09-19T15:19:16;26.20;43.70
82851;DHT22;72609;45.768;4.884;2023-09-19T15:21:43;26.20;44.00
82851;DHT22;72609;45.768;4.884;2023-09-19T15:24:08;26.30;44.10
82851;DHT22;72609;45.768;4.884;2023-09-19T15:26:36;26.20;44.10
82851;DHT22;72609;45.768;4.884;2023-09-19T15:29:07;26.20;44.20
82851;DHT22;72609;45.768;4.884;2023-09-19T15:31:35;26.10;44.50
82851;DHT22;72609;45.768;4.884;2023-09-19T15:34:04;26.10;44.50
82851;DHT22;72609;45.768;4.884;2023-09-19T15:36:31;26.00;44.30
82851;DHT22;72609;45.768;4.884;2023-09-19T15:39:04;25.90;44.70
82851;DHT22;72609;45.768;4.884;2023-09-19T15:41:37;25.80;45.00
82851;DHT22;72609;45.768;4.884;2023-09-19T15:44:04;25.90;44.40
82851;DHT22;72609;45.768;4.884;2023-09-19T15:46:31;25.80;44.40
82851;DHT22;72609;45.768;4.884;2023-09-19T15:48:58;25.80;44.90
82851;DHT22;72609;45.768;4.884;2023-09-19T15:51:26;25.70;44.90
82851;DHT22;72609;45.768;4.884;2023-09-19T15:53:53;25.70;45.20
82851;DHT22;72609;45.768;4.884;2023-09-19T15:56:19;25.70;44.90
82851;DHT22;72609;45.768;4.884;2023-09-19T15:58:52;25.60;45.70
82851;DHT22;72609;45.768;4.884;2023-09-19T16:01:19;25.60;45.30
82851;DHT22;72609;45.768;4.884;2023-09-19T16:03:47;25.60;45.40
82851;DHT22;72609;45.768;4.884;2023-09-19T16:06:18;25.50;45.50
82851;DHT22;72609;45.768;4.884;2023-09-19T16:08:48;25.50;45.30
82851;DHT22;72609;45.768;4.884;2023-09-19T16:11:14;25.50;45.40
82851;DHT22;72609;45.768;4.884;2023-09-19T16:13:41;25.50;45.40
82851;DHT22;72609;45.768;4.884;2023-09-19T16:16:08;25.60;45.30
82851;DHT22;72609;45.768;4.884;2023-09-19T16:18:38;25.60;45.60
82851;DHT22;72609;45.768;4.884;2023-09-19T16:21:05;25.60;45.70